createdAt,value
2022-12-25T12:02:05.297Z,22.96
2022-12-25T12:04:43.108Z,22.99
2022-12-25T12:07:19.102Z,23.03
2022-12-25T12:09:56.392Z,23.51
2022-12-25T12:13:23.659Z,23.57
2022-12-25T12:15:58.710Z,22.86
2022-12-25T12:18:28.170Z,22.82
2022-12-25T12:21:04.770Z,23.15
2022-12-25T12:24:16.338Z,23.36
2022-12-25T12:26:46.512Z,23.39
2022-12-25T12:29:29.657Z,23.18
2022-12-25T12:32:03.540Z,23.51
2022-12-25T12:34:40.826Z,23.89
2022-12-25T12:38:03.594Z,24.06
2022-12-25T12:41:03.382Z,24.26
2022-12-25T12:43:37.477Z,24.85
2022-12-25T12:46:32.277Z,25.25
2022-12-25T12:49:35.036Z,25.41
2022-12-25T12:52:25.226Z,25.64
2022-12-25T12:55:14.997Z,26.17
2022-12-25T12:58:02.806Z,26.70
2022-12-25T13:00:55.841Z,26.99
2022-12-25T13:03:56.214Z,27.28
2022-12-25T13:06:42.321Z,27.56
2022-12-25T13:09:30.280Z,28.14
2022-12-25T13:11:58.799Z,28.49
2022-12-25T13:14:40.102Z,28.93
2022-12-25T13:17:10.385Z,29.46
2022-12-25T13:19:44.873Z,29.85
2022-12-25T13:22:32.087Z,30.14
2022-12-25T13:25:19.410Z,30.60
2022-12-25T13:27:57.929Z,30.90
2022-12-25T13:30:29.402Z,31.32
2022-12-25T13:33:00.233Z,31.65
2022-12-25T13:35:28.479Z,32.00
2022-12-25T13:37:56.754Z,32.47
2022-12-25T13:40:26.294Z,32.68
2022-12-25T13:43:03.064Z,32.99
2022-12-25T13:45:31.727Z,33.16
2022-12-25T13:48:20.126Z,33.77
2022-12-25T13:51:01.395Z,34.27
2022-12-25T13:53:30.931Z,34.61
2022-12-25T13:56:10.079Z,35.39
2022-12-25T13:58:40.799Z,35.77
2022-12-25T14:01:13.476Z,36.03
2022-12-25T14:03:46.183Z,36.35
2022-12-25T14:06:26.981Z,36.56
2022-12-25T14:08:58.361Z,36.75
2022-12-25T14:11:30.728Z,36.98
2022-12-25T14:14:02.648Z,38.04
2022-12-25T14:16:34.393Z,38.50
2022-12-25T14:19:06.212Z,38.65
2022-12-25T14:21:50.326Z,38.68
2022-12-25T14:24:22.114Z,39.00
2022-12-25T14:27:06.279Z,39.53
2022-12-25T14:29:55.445Z,40.07
2022-12-25T14:32:26.781Z,40.21
2022-12-25T14:35:01.866Z,40.57
2022-12-25T14:37:38.417Z,40.70
2022-12-25T14:40:23.904Z,41.27
2022-12-25T14:43:00.737Z,41.26
2022-12-25T14:45:38.939Z,41.52
2022-12-25T14:48:25.266Z,41.61
2022-12-25T14:51:15.145Z,42.49
2022-12-25T14:53:49.136Z,42.90
2022-12-25T14:56:22.330Z,42.97
2022-12-25T14:58:59.129Z,42.82
2022-12-25T15:01:36.738Z,43.37
2022-12-25T15:04:10.951Z,43.77
2022-12-25T15:07:09.793Z,44.23
2022-12-25T15:09:40.400Z,44.42
2022-12-25T15:12:10.042Z,44.08
2022-12-25T15:14:41.434Z,44.79
2022-12-25T15:17:35.239Z,45.76
2022-12-25T15:20:20.581Z,45.75
2022-12-25T15:23:19.282Z,45.95
2022-12-25T15:25:54.949Z,46.09
2022-12-25T15:28:47.362Z,46.49
2022-12-25T15:31:43.028Z,47.11
2022-12-25T15:34:56.783Z,46.65
2022-12-25T15:40:29.713Z,47.29
2022-12-25T15:43:11.433Z,47.59
2022-12-25T15:45:51.791Z,48.22
2022-12-25T15:48:21.979Z,48.01
2022-12-25T15:50:57.051Z,47.78
2022-12-25T15:53:27.125Z,47.85
2022-12-25T15:55:55.915Z,48.30
2022-12-25T15:58:27.056Z,48.43
2022-12-25T16:01:00.834Z,48.53
2022-12-25T16:03:37.020Z,48.52
2022-12-25T16:06:19.322Z,48.66
2022-12-25T16:08:50.809Z,49.03
2022-12-25T16:11:26.914Z,49.37
2022-12-25T16:14:30.583Z,49.57
2022-12-25T16:18:10.357Z,49.79
2022-12-25T16:20:24.569Z,50.12
2022-12-25T16:23:15.671Z,49.52
2022-12-25T16:25:57.251Z,50.14
2022-12-25T16:28:30.106Z,50.06
2022-12-25T16:31:11.562Z,50.17
2022-12-25T16:34:08.818Z,50.04
2022-12-25T16:37:27.939Z,50.13
2022-12-25T16:39:56.370Z,50.80
2022-12-25T16:42:43.432Z,51.05
2022-12-25T16:45:22.896Z,51.52
2022-12-25T16:51:22.365Z,51.90
2022-12-25T16:54:20.220Z,52.18
2022-12-25T16:57:06.551Z,52.09
2022-12-25T17:00:02.895Z,52.33
2022-12-25T17:02:49.821Z,52.51
2022-12-25T17:05:23.533Z,53.02
2022-12-25T17:08:06.058Z,53.02
2022-12-25T17:10:51.157Z,53.47
2022-12-25T17:13:48.538Z,53.76
2022-12-25T17:16:26.220Z,54.57
2022-12-25T17:19:16.127Z,54.92
2022-12-25T17:22:20.763Z,55.56
2022-12-25T17:25:17.700Z,56.72
2022-12-25T17:27:52.843Z,56.05
2022-12-25T17:30:25.080Z,56.54
2022-12-25T17:33:09.032Z,56.44
2022-12-25T17:35:43.264Z,57.36
2022-12-25T17:38:37.468Z,57.63
2022-12-25T17:41:09.410Z,57.64
2022-12-25T17:43:45.900Z,58.01
2022-12-25T17:46:34.657Z,58.04
2022-12-25T17:49:05.640Z,58.75
2022-12-25T17:51:38.829Z,59.00
2022-12-25T17:54:44.243Z,58.98
2022-12-25T17:57:30.868Z,59.76
2022-12-25T18:00:09.206Z,60.20
2022-12-25T18:02:40.781Z,60.05
2022-12-25T18:11:34.157Z,61.03
2022-12-25T18:14:07.765Z,61.14
2022-12-25T18:16:58.937Z,61.92
2022-12-25T18:19:56.042Z,62.76
2022-12-25T18:22:46.910Z,62.38
2022-12-25T18:25:33.939Z,60.89
2022-12-25T18:28:03.303Z,61.47
2022-12-25T18:30:33.389Z,62.66
2022-12-25T18:33:02.867Z,62.77
2022-12-25T18:35:41.472Z,63.26
2022-12-25T18:38:10.043Z,63.83
2022-12-25T18:40:48.539Z,64.02
2022-12-25T18:43:16.819Z,64.19
2022-12-25T18:46:00.631Z,64.89
2022-12-25T18:48:33.647Z,66.00
2022-12-25T18:51:21.167Z,66.88
2022-12-25T18:54:07.632Z,66.16
2022-12-25T18:56:38.567Z,66.21
2022-12-25T18:59:06.703Z,66.46
2022-12-25T19:01:43.914Z,67.21
2022-12-25T19:04:18.723Z,67.10
2022-12-25T19:06:55.553Z,67.50
2022-12-25T19:09:43.803Z,68.03
2022-12-25T19:12:25.153Z,67.98
2022-12-25T19:14:53.422Z,68.87
2022-12-25T19:17:31.756Z,69.19
2022-12-25T19:20:02.257Z,69.29
2022-12-25T19:22:30.581Z,70.38
2022-12-25T19:25:03.020Z,69.59
2022-12-25T19:28:07.567Z,69.59
2022-12-25T19:30:48.586Z,69.86
2022-12-25T19:33:19.119Z,70.44
2022-12-25T19:35:50.139Z,69.97
2022-12-25T19:38:20.426Z,69.90
2022-12-25T19:43:58.355Z,69.60
2022-12-25T19:46:38.631Z,69.18
2022-12-25T19:49:13.487Z,69.51
2022-12-25T19:51:52.294Z,69.17
2022-12-25T19:54:26.827Z,70.41
2022-12-25T19:57:20.957Z,70.94
2022-12-25T19:59:57.452Z,70.82
2022-12-25T20:02:45.253Z,70.62
2022-12-25T20:05:31.824Z,70.87
2022-12-25T20:08:03.771Z,70.46
2022-12-25T20:10:32.123Z,70.49
2022-12-25T20:13:07.033Z,70.74
2022-12-25T20:15:35.417Z,70.46
2022-12-25T20:18:14.132Z,70.73
2022-12-25T20:20:43.108Z,70.64
2022-12-25T20:23:18.150Z,70.34
2022-12-25T20:25:48.579Z,70.47
2022-12-25T20:28:26.053Z,70.61
2022-12-25T20:31:50.727Z,71.59
2022-12-25T20:34:36.786Z,71.76
2022-12-25T20:37:09.241Z,72.31
2022-12-25T20:39:40.491Z,72.13
2022-12-25T20:42:17.798Z,72.42
2022-12-25T20:44:58.389Z,71.35
2022-12-25T20:47:33.597Z,71.29
2022-12-25T20:50:32.226Z,71.33
2022-12-25T20:53:18.352Z,71.79
2022-12-25T20:55:57.451Z,70.80
2022-12-25T20:58:27.705Z,70.74
2022-12-25T21:01:07.369Z,70.85
2022-12-25T21:03:41.213Z,71.70
2022-12-25T21:06:28.979Z,72.12
2022-12-25T21:09:04.947Z,73.46
2022-12-25T21:11:43.685Z,73.49
2022-12-25T21:14:24.852Z,73.39
2022-12-25T21:17:01.708Z,72.81
2022-12-25T21:19:41.771Z,72.05
2022-12-25T21:22:14.346Z,72.37
2022-12-25T21:24:48.218Z,72.16
2022-12-25T21:27:27.795Z,72.51
2022-12-25T21:33:07.402Z,73.23
2022-12-25T21:35:38.445Z,72.73
2022-12-25T21:38:34.548Z,73.12
2022-12-25T21:41:12.854Z,74.81
2022-12-25T21:43:46.226Z,73.56
2022-12-25T21:46:18.869Z,74.47
2022-12-25T21:48:52.998Z,74.93
2022-12-25T21:51:46.594Z,74.06
2022-12-25T21:54:38.216Z,74.72
2022-12-25T21:57:15.311Z,74.46
2022-12-25T21:59:48.028Z,74.46
2022-12-25T22:02:17.355Z,74.95
2022-12-25T22:04:47.016Z,75.07
2022-12-25T22:07:17.386Z,75.32
2022-12-25T22:09:48.811Z,75.65
2022-12-25T22:12:39.200Z,75.87
2022-12-25T22:15:09.955Z,75.89
2022-12-25T22:18:03.898Z,76.04
2022-12-25T22:20:36.872Z,76.00
2022-12-25T22:23:06.872Z,75.66
2022-12-25T22:25:34.975Z,76.38
2022-12-25T22:28:03.120Z,76.34
2022-12-25T22:30:32.126Z,76.03
2022-12-25T22:33:00.176Z,76.53
2022-12-25T22:35:28.379Z,76.48
2022-12-25T22:37:56.575Z,77.17
2022-12-25T22:40:45.100Z,77.00
2022-12-25T22:43:43.612Z,77.16
2022-12-25T22:46:23.044Z,76.48
2022-12-25T22:48:51.238Z,75.74
2022-12-25T22:51:19.256Z,75.89
2022-12-25T22:54:03.278Z,75.23
2022-12-25T22:56:36.306Z,75.79
2022-12-25T22:59:04.731Z,75.55
2022-12-25T23:01:33.059Z,75.46
2022-12-25T23:04:07.300Z,75.59
2022-12-25T23:06:39.063Z,75.80
2022-12-25T23:09:11.971Z,75.39
2022-12-25T23:11:40.185Z,75.45
2022-12-25T23:14:28.167Z,76.25
2022-12-25T23:16:56.577Z,76.88
2022-12-25T23:19:44.676Z,76.95
2022-12-25T23:22:41.380Z,76.78
2022-12-25T23:25:36.186Z,76.77
2022-12-25T23:28:43.644Z,77.84
2022-12-25T23:31:11.864Z,78.89
2022-12-25T23:33:40.037Z,78.86
2022-12-25T23:36:08.252Z,78.45
2022-12-25T23:38:36.292Z,78.76
2022-12-25T23:41:04.478Z,78.95
2022-12-25T23:43:32.601Z,78.59
2022-12-25T23:46:02.235Z,78.67
2022-12-25T23:48:30.564Z,78.34
2022-12-25T23:51:03.886Z,78.38
2022-12-25T23:53:35.123Z,78.93
2022-12-25T23:56:03.996Z,79.45
2022-12-25T23:58:40.501Z,79.05
